createdAt,value
2023-05-25T00:00:31.383Z,14.15
2023-05-25T00:02:59.473Z,14.04
2023-05-25T00:05:27.768Z,14.04
2023-05-25T00:07:55.479Z,14.04
2023-05-25T00:10:23.985Z,13.98
2023-05-25T00:12:51.135Z,13.92
2023-05-25T00:15:18.024Z,13.97
2023-05-25T00:17:48.859Z,13.93
2023-05-25T00:20:16.102Z,13.97
2023-05-25T00:22:44.964Z,13.94
2023-05-25T00:25:12.705Z,13.91
2023-05-25T00:27:39.524Z,13.90
2023-05-25T00:30:07.666Z,13.92
2023-05-25T00:32:34.827Z,13.95
2023-05-25T00:35:01.764Z,13.92
2023-05-25T00:37:28.656Z,13.87
2023-05-25T00:39:55.568Z,13.81
2023-05-25T00:42:23.539Z,13.85
2023-05-25T00:44:50.622Z,13.72
2023-05-25T00:47:17.788Z,13.85
2023-05-25T00:49:44.647Z,13.82
2023-05-25T00:52:13.471Z,13.82
2023-05-25T00:54:40.474Z,13.75
2023-05-25T00:57:08.590Z,13.83
2023-05-25T00:59:42.309Z,13.86
2023-05-25T01:02:11.909Z,13.85
2023-05-25T01:04:47.563Z,13.85
2023-05-25T01:07:23.200Z,13.84
2023-05-25T01:10:06.736Z,13.73
2023-05-25T01:12:38.897Z,13.85
2023-05-25T01:15:07.075Z,13.85
2023-05-25T01:17:38.156Z,13.85
2023-05-25T01:20:11.790Z,13.73
2023-05-25T01:22:55.992Z,13.81
2023-05-25T01:25:35.976Z,13.82
2023-05-25T01:28:18.730Z,13.75
2023-05-25T01:30:49.244Z,13.73
2023-05-25T01:33:21.510Z,13.83
2023-05-25T01:35:51.124Z,13.75
2023-05-25T01:38:18.325Z,13.82
2023-05-25T01:40:45.513Z,13.78
2023-05-25T01:43:12.895Z,13.37
2023-05-25T01:45:40.034Z,13.52
2023-05-25T01:48:29.023Z,13.58
2023-05-25T01:51:02.674Z,13.61
2023-05-25T01:54:05.916Z,13.60
2023-05-25T01:56:33.792Z,13.56
2023-05-25T01:59:02.639Z,13.36
2023-05-25T02:01:30.576Z,13.48
2023-05-25T02:03:57.884Z,13.56
2023-05-25T02:06:24.715Z,13.57
2023-05-25T02:08:51.506Z,13.61
2023-05-25T02:11:18.361Z,13.65
2023-05-25T02:13:45.166Z,13.67
2023-05-25T02:16:12.073Z,13.69
2023-05-25T02:18:39.109Z,13.72
2023-05-25T02:21:06.001Z,13.48
2023-05-25T02:23:32.812Z,13.59
2023-05-25T02:25:59.640Z,13.67
2023-05-25T02:28:26.434Z,13.68
2023-05-25T02:30:53.419Z,13.72
2023-05-25T02:33:20.304Z,13.73
2023-05-25T02:35:47.165Z,13.75
2023-05-25T02:38:14.309Z,13.80
2023-05-25T02:40:41.134Z,13.80
2023-05-25T02:43:08.027Z,13.49
2023-05-25T02:45:34.899Z,13.61
2023-05-25T02:48:01.788Z,13.64
2023-05-25T02:50:28.627Z,13.69
2023-05-25T02:52:55.449Z,13.69
2023-05-25T02:55:22.944Z,13.73
2023-05-25T02:57:49.795Z,13.65
2023-05-25T03:00:17.178Z,13.60
2023-05-25T03:02:46.897Z,13.70
2023-05-25T03:05:13.754Z,13.70
2023-05-25T03:07:41.125Z,13.69
2023-05-25T03:10:08.344Z,13.70
2023-05-25T03:12:35.153Z,13.68
2023-05-25T03:15:01.984Z,13.59
2023-05-25T03:17:28.905Z,13.56
2023-05-25T03:19:56.032Z,13.62
2023-05-25T03:22:22.894Z,13.57
2023-05-25T03:24:50.156Z,13.51
2023-05-25T03:27:17.130Z,13.47
2023-05-25T03:29:43.946Z,13.42
2023-05-25T03:32:10.839Z,13.41
2023-05-25T03:34:37.856Z,13.39
2023-05-25T03:37:04.902Z,13.28
2023-05-25T03:39:31.875Z,13.10
2023-05-25T03:41:58.780Z,13.18
2023-05-25T03:44:25.763Z,13.14
2023-05-25T03:46:52.628Z,13.09
2023-05-25T03:49:19.486Z,12.96
2023-05-25T03:51:46.311Z,13.07
2023-05-25T03:54:13.397Z,13.10
2023-05-25T03:56:40.312Z,13.05
2023-05-25T03:59:07.138Z,13.06
2023-05-25T04:01:33.976Z,13.02
2023-05-25T04:04:01.064Z,13.02
2023-05-25T04:06:29.920Z,12.92
2023-05-25T04:08:57.998Z,12.98
2023-05-25T04:11:25.662Z,12.97
2023-05-25T04:13:52.561Z,12.91
2023-05-25T04:16:19.504Z,13.01
2023-05-25T04:18:46.432Z,13.03
2023-05-25T04:21:13.247Z,12.99
2023-05-25T04:23:40.870Z,13.00
2023-05-25T04:26:10.243Z,12.99
2023-05-25T04:28:37.184Z,13.12
2023-05-25T04:31:05.326Z,13.06
2023-05-25T04:33:34.211Z,13.14
2023-05-25T04:36:01.144Z,13.06
2023-05-25T04:38:28.005Z,13.14
2023-05-25T04:40:54.970Z,13.12
2023-05-25T04:43:21.779Z,13.09
2023-05-25T04:45:48.699Z,13.06
2023-05-25T04:48:15.552Z,13.10
2023-05-25T04:50:42.812Z,13.09
2023-05-25T04:53:10.072Z,13.13
2023-05-25T04:55:36.949Z,13.13
2023-05-25T04:58:05.798Z,13.13
2023-05-25T05:00:34.353Z,13.12
2023-05-25T05:03:01.342Z,13.08
2023-05-25T05:05:29.247Z,13.08
2023-05-25T05:07:56.063Z,13.08
2023-05-25T05:10:22.941Z,13.01
2023-05-25T05:12:49.757Z,13.10
2023-05-25T05:15:16.849Z,13.15
2023-05-25T05:17:43.727Z,13.19
2023-05-25T05:20:10.988Z,13.26
2023-05-25T05:22:38.590Z,13.27
2023-05-25T05:25:06.097Z,13.27
2023-05-25T05:27:33.036Z,13.21
2023-05-25T05:29:59.898Z,13.25
2023-05-25T05:32:26.946Z,13.38
2023-05-25T05:34:53.778Z,13.36
2023-05-25T05:37:20.772Z,13.37
2023-05-25T05:39:47.620Z,13.41
2023-05-25T05:42:14.441Z,13.44
2023-05-25T05:44:41.335Z,13.45
2023-05-25T05:47:08.181Z,13.43
2023-05-25T05:49:35.079Z,13.53
2023-05-25T05:52:03.767Z,13.58
2023-05-25T05:54:30.784Z,13.59
2023-05-25T05:56:57.637Z,13.56
2023-05-25T05:59:24.583Z,13.62
2023-05-25T06:01:51.410Z,13.67
2023-05-25T06:04:19.365Z,13.66
2023-05-25T06:06:46.240Z,13.72
2023-05-25T06:09:13.672Z,13.73
2023-05-25T06:11:40.578Z,13.71
2023-05-25T06:14:07.404Z,13.78
2023-05-25T06:16:34.329Z,13.81
2023-05-25T06:19:01.331Z,13.86
2023-05-25T06:21:28.313Z,13.87
2023-05-25T06:23:57.660Z,13.89
2023-05-25T06:26:24.948Z,13.86
2023-05-25T06:28:51.935Z,13.83
2023-05-25T06:31:18.909Z,13.88
2023-05-25T06:33:45.979Z,13.82
2023-05-25T06:36:15.793Z,13.76
2023-05-25T06:38:42.927Z,13.93
2023-05-25T06:41:14.947Z,13.82
2023-05-25T06:43:44.807Z,14.02
2023-05-25T06:46:13.676Z,13.96
2023-05-25T06:48:40.832Z,14.08
2023-05-25T06:51:07.724Z,14.12
2023-05-25T06:53:34.509Z,14.14
2023-05-25T06:56:01.390Z,14.14
2023-05-25T06:58:28.290Z,14.22
2023-05-25T07:00:55.140Z,14.24
2023-05-25T07:03:21.947Z,14.06
2023-05-25T07:05:49.136Z,14.30
2023-05-25T07:08:16.134Z,14.32
2023-05-25T07:10:43.042Z,14.26
2023-05-25T07:13:11.219Z,14.27
2023-05-25T07:15:38.028Z,14.41
2023-05-25T07:18:05.049Z,14.44
2023-05-25T07:20:34.078Z,14.30
2023-05-25T07:23:01.005Z,14.42
2023-05-25T07:25:27.849Z,14.21
2023-05-25T07:27:55.256Z,14.50
2023-05-25T07:30:22.194Z,14.52
2023-05-25T07:32:49.040Z,14.53
2023-05-25T07:35:15.980Z,14.61
2023-05-25T07:37:42.787Z,14.66
2023-05-25T07:40:10.670Z,14.66
2023-05-25T07:42:37.568Z,14.65
2023-05-25T07:45:04.915Z,14.64
2023-05-25T07:47:31.920Z,14.63
2023-05-25T07:49:58.944Z,14.64
2023-05-25T07:52:25.886Z,14.75
2023-05-25T07:54:52.937Z,14.76
2023-05-25T07:57:19.869Z,14.83
2023-05-25T07:59:46.769Z,14.84
2023-05-25T08:02:13.586Z,14.88
2023-05-25T08:04:40.987Z,14.94
2023-05-25T08:07:07.945Z,14.94
2023-05-25T08:09:34.929Z,14.97
2023-05-25T08:12:23.877Z,14.94
2023-05-25T08:14:48.563Z,15.03
2023-05-25T08:17:15.398Z,15.02
2023-05-25T08:19:42.332Z,15.10
2023-05-25T08:22:09.185Z,15.17
2023-05-25T08:24:36.000Z,15.23
2023-05-25T08:27:03.533Z,15.26
2023-05-25T08:29:31.015Z,15.25
2023-05-25T08:31:57.853Z,15.31
2023-05-25T08:34:24.779Z,15.31
2023-05-25T08:36:51.590Z,15.40
2023-05-25T08:39:18.838Z,15.43
2023-05-25T08:41:45.778Z,15.53
2023-05-25T08:44:14.551Z,15.60
2023-05-25T08:46:42.181Z,15.67
2023-05-25T08:49:11.823Z,15.72
2023-05-25T08:51:52.471Z,15.71
2023-05-25T08:54:34.833Z,15.81
2023-05-25T08:57:21.206Z,15.88
2023-05-25T09:00:14.256Z,15.88
2023-05-25T09:03:08.993Z,15.80
2023-05-25T09:05:37.951Z,15.94
2023-05-25T09:08:10.308Z,16.02
2023-05-25T09:10:38.502Z,16.03
2023-05-25T09:13:19.776Z,16.09
2023-05-25T09:15:49.237Z,16.15
2023-05-25T09:18:16.221Z,16.16
2023-05-25T09:20:46.174Z,16.10
2023-05-25T09:23:15.084Z,16.31
2023-05-25T09:25:42.278Z,16.36
2023-05-25T09:28:25.329Z,16.41
2023-05-25T09:30:53.757Z,16.49
2023-05-25T09:33:21.091Z,16.50
2023-05-25T09:35:48.503Z,16.50
2023-05-25T09:38:16.874Z,16.57
2023-05-25T09:40:45.282Z,16.68
2023-05-25T09:43:19.687Z,16.70
2023-05-25T09:45:55.061Z,16.84
2023-05-25T09:48:23.060Z,16.83
2023-05-25T09:50:51.406Z,16.90
2023-05-25T09:53:18.666Z,16.97
2023-05-25T09:55:53.354Z,17.03
2023-05-25T09:58:24.259Z,17.09
2023-05-25T10:00:56.111Z,17.13
2023-05-25T10:03:23.124Z,17.18
2023-05-25T10:05:50.377Z,17.22
2023-05-25T10:08:21.740Z,17.26
2023-05-25T10:10:50.176Z,17.12
2023-05-25T10:13:24.477Z,17.36
2023-05-25T10:15:54.451Z,17.40
2023-05-25T10:18:28.645Z,17.43
2023-05-25T10:21:04.619Z,17.38
2023-05-25T10:23:41.866Z,17.48
2023-05-25T10:26:10.010Z,17.52
2023-05-25T10:28:38.457Z,17.60
2023-05-25T10:31:07.047Z,17.62
2023-05-25T10:33:34.400Z,17.74
2023-05-25T10:36:10.594Z,17.79
2023-05-25T10:38:40.562Z,17.83
2023-05-25T10:41:11.136Z,17.90
2023-05-25T10:43:39.630Z,17.86
2023-05-25T10:46:07.526Z,17.96
2023-05-25T10:48:38.957Z,17.95
2023-05-25T10:51:11.793Z,18.02
2023-05-25T10:53:39.190Z,18.04
2023-05-25T10:56:09.898Z,18.08
2023-05-25T10:58:43.788Z,18.09
2023-05-25T11:01:15.816Z,18.10
2023-05-25T11:03:51.273Z,18.13
2023-05-25T11:06:21.535Z,18.21
2023-05-25T11:08:51.413Z,18.28
2023-05-25T11:11:18.263Z,18.30
2023-05-25T11:13:47.167Z,18.35
2023-05-25T11:16:17.974Z,18.31
2023-05-25T11:18:57.479Z,18.40
2023-05-25T11:21:27.399Z,18.44
2023-05-25T11:24:04.211Z,18.49
2023-05-25T11:26:33.574Z,18.52
2023-05-25T11:29:12.370Z,18.58
2023-05-25T11:31:43.286Z,18.68
2023-05-25T11:34:12.285Z,18.67
2023-05-25T11:36:39.653Z,18.76
2023-05-25T11:39:17.254Z,18.68
2023-05-25T11:41:57.875Z,18.82
2023-05-25T11:44:33.803Z,18.84
2023-05-25T11:47:08.945Z,18.84
2023-05-25T11:49:41.815Z,18.88
2023-05-25T11:52:09.651Z,18.90
2023-05-25T11:54:40.129Z,18.92
2023-05-25T11:57:27.336Z,18.91
2023-05-25T11:59:57.223Z,18.97
2023-05-25T12:02:24.645Z,19.06
2023-05-25T12:05:01.443Z,19.07
2023-05-25T12:07:29.832Z,19.15
2023-05-25T12:10:11.773Z,19.12
2023-05-25T12:12:52.199Z,19.19
2023-05-25T12:15:24.581Z,19.23
2023-05-25T12:17:53.625Z,19.38
2023-05-25T12:20:20.846Z,19.44
2023-05-25T12:22:48.610Z,19.43
2023-05-25T12:25:21.144Z,19.47
2023-05-25T12:27:48.032Z,19.48
2023-05-25T12:30:14.893Z,19.45
2023-05-25T12:33:04.959Z,19.55
2023-05-25T12:35:47.978Z,19.63
2023-05-25T12:38:21.433Z,19.70
2023-05-25T12:40:48.468Z,19.70
2023-05-25T12:43:16.906Z,19.77
2023-05-25T12:45:44.036Z,19.71
2023-05-25T12:48:11.934Z,19.82
2023-05-25T12:50:38.963Z,19.72
2023-05-25T12:53:06.171Z,19.90
2023-05-25T12:55:35.908Z,19.92
2023-05-25T12:58:05.939Z,19.96
2023-05-25T13:00:37.262Z,19.99
2023-05-25T13:03:08.909Z,20.02
2023-05-25T13:05:38.036Z,20.03
2023-05-25T13:08:06.650Z,20.09
2023-05-25T13:10:34.754Z,20.11
2023-05-25T13:13:02.073Z,20.12
2023-05-25T13:15:29.147Z,20.20
2023-05-25T13:17:58.476Z,20.22
2023-05-25T13:20:27.010Z,20.17
2023-05-25T13:22:55.825Z,20.17
2023-05-25T13:25:23.120Z,20.19
2023-05-25T13:27:51.930Z,20.19
2023-05-25T13:30:21.424Z,20.22
2023-05-25T13:32:51.071Z,20.22
2023-05-25T13:35:23.352Z,20.19
2023-05-25T13:37:51.249Z,20.25
2023-05-25T13:40:19.020Z,20.27
2023-05-25T13:42:46.120Z,20.32
2023-05-25T13:45:13.904Z,20.34
2023-05-25T13:47:43.313Z,20.32
2023-05-25T13:50:11.137Z,20.31
2023-05-25T13:52:37.961Z,20.32
2023-05-25T13:55:05.415Z,20.33
2023-05-25T13:57:32.355Z,20.33
2023-05-25T13:59:59.163Z,20.38
2023-05-25T14:02:26.180Z,20.39
2023-05-25T14:04:53.058Z,20.36
2023-05-25T14:07:19.891Z,20.42
2023-05-25T14:09:46.765Z,20.44
2023-05-25T14:12:14.339Z,20.48
2023-05-25T14:14:41.338Z,20.46
2023-05-25T14:17:08.184Z,20.53
2023-05-25T14:19:35.357Z,20.50
2023-05-25T14:22:12.310Z,20.61
2023-05-25T14:24:39.946Z,20.65
2023-05-25T14:27:09.473Z,20.66
2023-05-25T14:29:36.418Z,20.69
2023-05-25T14:32:03.392Z,20.69
2023-05-25T14:34:30.366Z,20.70
2023-05-25T14:36:57.222Z,20.76
2023-05-25T14:39:24.017Z,20.83
2023-05-25T14:41:50.852Z,20.86
2023-05-25T14:44:17.746Z,20.97
2023-05-25T14:46:44.714Z,21.00
2023-05-25T14:49:13.493Z,21.05
2023-05-25T14:51:40.419Z,21.07
2023-05-25T14:54:07.790Z,20.85
2023-05-25T14:56:35.081Z,20.95
2023-05-25T14:59:02.177Z,21.01
2023-05-25T15:01:31.633Z,20.91
2023-05-25T15:03:58.657Z,21.03
2023-05-25T15:06:25.561Z,20.98
2023-05-25T15:08:52.403Z,20.90
2023-05-25T15:11:19.309Z,20.84
2023-05-25T15:13:47.026Z,20.99
2023-05-25T15:16:14.887Z,20.97
2023-05-25T15:18:41.993Z,20.93
2023-05-25T15:21:09.148Z,20.96
2023-05-25T15:23:36.557Z,20.92
2023-05-25T15:26:04.534Z,21.03
2023-05-25T15:28:31.774Z,21.06
2023-05-25T15:31:01.577Z,21.06
2023-05-25T15:33:48.558Z,20.95
2023-05-25T15:36:18.957Z,21.13
2023-05-25T15:38:49.250Z,21.16
2023-05-25T15:41:17.230Z,21.20
2023-05-25T15:43:54.355Z,21.27
2023-05-25T15:46:21.581Z,21.27
2023-05-25T15:48:48.553Z,21.40
2023-05-25T15:51:15.691Z,21.40
2023-05-25T15:53:42.647Z,21.23
2023-05-25T15:56:09.571Z,21.43
2023-05-25T15:58:36.426Z,21.43
2023-05-25T16:01:03.581Z,21.45
2023-05-25T16:03:30.501Z,21.48
2023-05-25T16:05:57.512Z,21.53
2023-05-25T16:08:24.346Z,21.54
2023-05-25T16:10:51.261Z,21.54
2023-05-25T16:13:18.031Z,21.58
2023-05-25T16:15:45.076Z,21.66
2023-05-25T16:18:12.182Z,21.73
2023-05-25T16:20:39.146Z,21.76
2023-05-25T16:23:06.446Z,21.80
2023-05-25T16:25:33.284Z,21.76
2023-05-25T16:28:00.229Z,21.85
2023-05-25T16:30:27.066Z,21.83
2023-05-25T16:32:54.043Z,21.87
2023-05-25T16:35:21.358Z,21.87
2023-05-25T16:37:48.248Z,21.89
2023-05-25T16:40:15.127Z,21.89
2023-05-25T16:42:42.013Z,21.95
2023-05-25T16:45:09.454Z,21.97
2023-05-25T16:47:36.305Z,21.95
2023-05-25T16:50:03.429Z,21.93
2023-05-25T16:52:30.295Z,21.91
2023-05-25T16:54:59.029Z,21.95
2023-05-25T16:57:26.089Z,21.96
2023-05-25T16:59:53.835Z,21.94
2023-05-25T17:02:20.804Z,22.06
2023-05-25T17:04:47.679Z,22.02
2023-05-25T17:07:14.522Z,22.03
2023-05-25T17:09:41.300Z,22.04
2023-05-25T17:12:08.494Z,22.01
2023-05-25T17:14:35.324Z,21.96
2023-05-25T17:17:02.264Z,21.94
2023-05-25T17:19:29.102Z,21.93
2023-05-25T17:21:56.373Z,21.92
2023-05-25T17:24:23.211Z,21.91
2023-05-25T17:26:51.584Z,21.87
2023-05-25T17:29:18.549Z,21.60
2023-05-25T17:31:47.068Z,21.95
2023-05-25T17:34:16.093Z,21.97
2023-05-25T17:36:43.222Z,21.94
2023-05-25T17:39:10.121Z,21.99
2023-05-25T17:41:37.086Z,21.99
2023-05-25T17:44:04.584Z,21.97
2023-05-25T17:46:32.815Z,21.85
2023-05-25T17:49:00.421Z,21.86
2023-05-25T17:51:28.175Z,21.86
2023-05-25T17:53:55.424Z,21.85
2023-05-25T17:56:24.047Z,21.85
2023-05-25T17:58:50.894Z,21.85
2023-05-25T18:01:17.847Z,21.93
2023-05-25T18:03:44.812Z,21.85
2023-05-25T18:06:11.696Z,21.89
2023-05-25T18:08:38.518Z,21.81
2023-05-25T18:11:05.644Z,21.80
2023-05-25T18:13:32.506Z,21.80
2023-05-25T18:15:59.685Z,21.68
2023-05-25T18:18:26.535Z,21.67
2023-05-25T18:20:53.461Z,21.64
2023-05-25T18:23:22.073Z,21.59
2023-05-25T18:25:48.937Z,21.56
2023-05-25T18:28:15.968Z,21.45
2023-05-25T18:30:43.186Z,21.40
2023-05-25T18:33:10.611Z,21.37
2023-05-25T18:35:38.022Z,21.34
2023-05-25T18:38:05.305Z,21.27
2023-05-25T18:40:32.403Z,21.17
2023-05-25T18:42:59.321Z,21.14
2023-05-25T18:45:26.324Z,21.08
2023-05-25T18:47:53.228Z,21.07
2023-05-25T18:50:20.631Z,21.08
2023-05-25T18:52:50.935Z,21.03
2023-05-25T18:55:18.817Z,20.96
2023-05-25T18:57:45.809Z,20.95
2023-05-25T19:00:13.589Z,20.83
2023-05-25T19:02:40.866Z,20.81
2023-05-25T19:05:11.242Z,20.71
2023-05-25T19:07:51.118Z,20.66
2023-05-25T19:10:25.333Z,20.53
2023-05-25T19:12:52.205Z,20.57
2023-05-25T19:15:19.112Z,20.56
2023-05-25T19:17:46.761Z,20.50
2023-05-25T19:20:13.864Z,20.46
2023-05-25T19:22:41.732Z,20.37
2023-05-25T19:25:08.895Z,20.29
2023-05-25T19:27:35.792Z,20.31
2023-05-25T19:30:02.601Z,20.19
2023-05-25T19:32:29.593Z,20.17
2023-05-25T19:34:56.821Z,20.13
2023-05-25T19:37:23.632Z,20.01
2023-05-25T19:39:50.600Z,19.97
2023-05-25T19:42:17.432Z,19.97
2023-05-25T19:44:45.322Z,19.89
2023-05-25T19:47:12.281Z,19.83
2023-05-25T19:49:39.182Z,19.86
2023-05-25T19:52:06.208Z,19.83
2023-05-25T19:54:33.021Z,19.81
2023-05-25T19:57:00.790Z,19.71
2023-05-25T19:59:30.059Z,19.68
2023-05-25T20:01:57.033Z,19.73
2023-05-25T20:04:24.025Z,19.71
2023-05-25T20:06:51.614Z,19.72
2023-05-25T20:09:19.040Z,19.69
2023-05-25T20:11:45.896Z,19.69
2023-05-25T20:14:12.828Z,19.64
2023-05-25T20:16:39.721Z,19.65
2023-05-25T20:19:07.793Z,19.58
2023-05-25T20:21:35.625Z,19.58
2023-05-25T20:24:03.392Z,19.57
2023-05-25T20:26:30.248Z,19.52
2023-05-25T20:28:57.412Z,19.40
2023-05-25T20:31:24.977Z,19.30
2023-05-25T20:33:51.831Z,19.27
2023-05-25T20:36:18.657Z,19.18
2023-05-25T20:38:45.670Z,19.15
2023-05-25T20:41:13.303Z,19.03
2023-05-25T20:43:40.848Z,19.06
2023-05-25T20:46:11.130Z,18.84
2023-05-25T20:48:39.285Z,18.77
2023-05-25T20:51:06.182Z,18.67
2023-05-25T20:53:33.107Z,18.67
2023-05-25T20:56:01.818Z,18.71
2023-05-25T20:58:28.722Z,18.69
2023-05-25T21:00:55.602Z,18.66
2023-05-25T21:03:22.555Z,18.58
2023-05-25T21:05:49.491Z,18.59
2023-05-25T21:08:16.336Z,18.64
2023-05-25T21:10:43.460Z,18.66
2023-05-25T21:13:10.285Z,18.58
2023-05-25T21:15:37.094Z,18.54
2023-05-25T21:18:05.544Z,18.47
2023-05-25T21:20:33.016Z,18.46
2023-05-25T21:23:00.622Z,18.41
2023-05-25T21:25:27.436Z,18.42
2023-05-25T21:27:56.862Z,18.43
2023-05-25T21:30:24.408Z,18.35
2023-05-25T21:32:51.420Z,18.32
2023-05-25T21:35:18.467Z,18.14
2023-05-25T21:37:45.662Z,18.12
2023-05-25T21:40:12.850Z,17.92
2023-05-25T21:42:39.703Z,18.10
2023-05-25T21:45:07.241Z,18.07
2023-05-25T21:47:34.133Z,18.14
2023-05-25T21:50:00.988Z,18.12
2023-05-25T21:52:27.786Z,18.08
2023-05-25T21:54:54.665Z,18.09
2023-05-25T21:57:21.478Z,17.94
2023-05-25T21:59:48.351Z,17.97
2023-05-25T22:02:15.246Z,17.88
2023-05-25T22:04:42.310Z,17.80
2023-05-25T22:07:09.125Z,17.70
2023-05-25T22:09:35.991Z,17.74
2023-05-25T22:12:02.845Z,17.59
2023-05-25T22:14:29.710Z,17.63
2023-05-25T22:16:56.525Z,17.68
2023-05-25T22:19:23.448Z,17.67
2023-05-25T22:21:50.402Z,17.58
2023-05-25T22:24:17.265Z,17.61
2023-05-25T22:26:44.302Z,17.52
2023-05-25T22:29:11.907Z,17.53
2023-05-25T22:31:38.891Z,17.33
2023-05-25T22:34:05.859Z,17.34
2023-05-25T22:36:32.651Z,17.41
2023-05-25T22:38:59.511Z,17.36
2023-05-25T22:41:26.540Z,17.31
2023-05-25T22:43:53.441Z,17.28
2023-05-25T22:46:20.896Z,17.24
2023-05-25T22:48:47.839Z,17.16
2023-05-25T22:51:14.681Z,17.11
2023-05-25T22:53:41.639Z,17.13
2023-05-25T22:56:08.580Z,17.09
2023-05-25T22:58:35.372Z,17.06
2023-05-25T23:01:02.194Z,16.99
2023-05-25T23:03:29.946Z,16.96
2023-05-25T23:05:56.975Z,16.96
2023-05-25T23:08:23.754Z,16.92
2023-05-25T23:10:50.637Z,16.89
2023-05-25T23:13:19.097Z,16.82
2023-05-25T23:15:47.492Z,16.81
2023-05-25T23:18:14.522Z,16.70
2023-05-25T23:20:41.826Z,16.71
2023-05-25T23:23:08.775Z,16.70
2023-05-25T23:25:36.310Z,16.70
2023-05-25T23:28:03.133Z,16.57
2023-05-25T23:30:29.954Z,16.62
2023-05-25T23:32:56.769Z,16.55
2023-05-25T23:35:23.727Z,16.59
2023-05-25T23:37:51.928Z,16.60
2023-05-25T23:40:18.927Z,16.58
2023-05-25T23:42:45.942Z,16.45
2023-05-25T23:45:13.541Z,16.52
2023-05-25T23:47:40.672Z,16.46
2023-05-25T23:50:07.934Z,16.33
2023-05-25T23:52:34.958Z,16.38
2023-05-25T23:55:01.936Z,16.37
2023-05-25T23:57:28.729Z,16.41
2023-05-25T23:59:55.681Z,16.40
